Time;durP1;ratioP1;P1;durP2;ratioP2;P2;SDS_P1;SDS_P2;PMS_P1;PMS_P2;Temp;Humidity;BMP_temperature;BMP_pressure;BME280_temperature;BME280_humidity;BME280_pressure;Samples;Min_cycle;Max_cycle;Signal;HPM_P1;HPM_P2
2022/08/31 00:04:07;;;;;;;1.63;0.50;;;18.90;82.40;;;;;;4972589;28;20034;-72
2022/08/31 00:06:34;;;;;;;1.38;0.68;;;19.00;82.60;;;;;;4972249;28;20096;-73
2022/08/31 00:09:02;;;;;;;4.97;0.60;;;18.90;82.40;;;;;;4972102;28;20027;-71
2022/08/31 00:11:29;;;;;;;2.92;0.50;;;18.90;82.60;;;;;;4971962;28;20100;-71
2022/08/31 00:14:06;;;;;;;1.45;0.60;;;18.90;82.60;;;;;;4972569;28;20453;-71
2022/08/31 00:16:35;;;;;;;0.60;0.52;;;18.90;82.60;;;;;;4972265;28;20181;-71
2022/08/31 00:19:01;;;;;;;1.35;0.70;;;18.90;82.70;;;;;;4971816;28;20035;-71
2022/08/31 00:21:26;;;;;;;0.47;0.43;;;18.90;82.70;;;;;;4986930;28;20484;-71
2022/08/31 00:23:53;;;;;;;1.65;0.68;;;18.80;82.60;;;;;;4972116;28;20027;-71
2022/08/31 00:26:20;;;;;;;0.32;0.30;;;18.90;82.80;;;;;;4971811;28;20031;-72
2022/08/31 00:28:46;;;;;;;2.17;0.60;;;18.90;82.90;;;;;;4972275;28;20034;-71
2022/08/31 00:31:12;;;;;;;1.80;0.63;;;18.80;82.90;;;;;;4971699;28;20093;-71
2022/08/31 00:33:39;;;;;;;0.88;0.50;;;18.80;83.00;;;;;;4971818;28;20035;-71
2022/08/31 00:36:10;;;;;;;1.17;0.80;;;18.80;83.10;;;;;;4971733;28;20050;-71
2022/08/31 00:38:35;;;;;;;2.05;0.90;;;18.80;83.10;;;;;;4971780;28;20030;-70
2022/08/31 00:41:01;;;;;;;0.80;0.70;;;18.80;83.10;;;;;;4972010;28;20026;-72
2022/08/31 00:43:48;;;;;;;6.53;3.90;;;18.80;83.20;;;;;;4972165;28;20045;-71
2022/08/31 00:46:20;;;;;;;2.60;1.48;;;18.80;83.30;;;;;;4971825;28;20031;-70
2022/08/31 00:48:55;;;;;;;2.13;0.70;;;18.80;83.30;;;;;;4971560;28;20034;-71
2022/08/31 00:51:21;;;;;;;0.70;0.57;;;18.80;83.40;;;;;;4971763;28;20050;-70
2022/08/31 00:53:47;;;;;;;2.20;0.50;;;18.80;83.60;;;;;;4971852;28;20373;-72
2022/08/31 00:56:14;;;;;;;0.80;0.50;;;18.70;83.50;;;;;;4972112;28;20414;-71
2022/08/31 00:58:39;;;;;;;0.90;0.65;;;18.70;83.50;;;;;;4971642;28;20422;-71
2022/08/31 01:01:10;;;;;;;1.77;0.80;;;18.70;83.60;;;;;;4971644;28;20038;-71
2022/08/31 01:03:35;;;;;;;1.05;0.60;;;18.70;83.70;;;;;;4971460;28;20102;-72
2022/08/31 01:06:04;;;;;;;2.53;0.52;;;18.70;83.90;;;;;;4986670;28;20468;-71
2022/08/31 01:08:30;;;;;;;0.50;0.45;;;18.70;84.00;;;;;;4971578;28;20355;-71
2022/08/31 01:10:57;;;;;;;5.40;0.50;;;18.60;84.00;;;;;;4972175;28;20126;-71
2022/08/31 01:13:23;;;;;;;0.80;0.50;;;18.50;84.30;;;;;;4975531;28;20474;-70
2022/08/31 01:15:56;;;;;;;0.98;0.50;;;18.50;84.50;;;;;;4975426;28;20041;-71
2022/08/31 01:18:23;;;;;;;1.80;0.60;;;18.60;84.60;;;;;;4975457;28;20049;-71
2022/08/31 01:21:19;;;;;;;2.30;0.50;;;18.50;84.60;;;;;;4974167;28;20035;-71
2022/08/31 01:23:45;;;;;;;0.32;0.25;;;18.50;84.80;;;;;;4975164;28;20110;-71
2022/08/31 01:26:16;;;;;;;1.05;0.57;;;18.50;85.00;;;;;;4975596;28;20154;-71
2022/08/31 01:28:42;;;;;;;0.68;0.60;;;18.50;85.10;;;;;;4975254;28;20030;-71
2022/08/31 01:31:17;;;;;;;0.45;0.43;;;18.50;85.20;;;;;;4975061;28;20049;-72
2022/08/31 01:33:43;;;;;;;2.50;0.75;;;18.50;85.30;;;;;;4974767;28;20469;-71
2022/08/31 01:36:09;;;;;;;0.70;0.40;;;18.50;85.50;;;;;;4985601;28;20049;-71
2022/08/31 01:38:36;;;;;;;0.55;0.50;;;18.50;85.60;;;;;;4994373;28;20023;-70
2022/08/31 01:41:06;;;;;;;2.40;0.50;;;18.40;85.80;;;;;;4995028;28;20026;-70
2022/08/31 01:43:33;;;;;;;1.55;0.57;;;18.40;86.00;;;;;;4994416;28;20053;-71
2022/08/31 01:46:11;;;;;;;2.23;0.70;;;18.20;86.40;;;;;;4994288;28;20034;-71
2022/08/31 01:48:39;;;;;;;1.20;0.50;;;18.20;86.60;;;;;;4994234;28;20031;-72
2022/08/31 01:51:05;;;;;;;1.08;0.50;;;18.20;86.80;;;;;;4993084;28;20484;-70
2022/08/31 01:53:31;;;;;;;1.48;0.65;;;18.20;87.20;;;;;;4994160;28;20041;-70
2022/08/31 01:55:57;;;;;;;1.63;0.50;;;18.20;87.40;;;;;;4994814;28;20437;-70
2022/08/31 01:58:23;;;;;;;1.45;0.43;;;18.10;87.20;;;;;;4994033;28;20096;-72
2022/08/31 02:00:49;;;;;;;1.27;0.63;;;18.10;87.60;;;;;;4992678;28;20050;-71
2022/08/31 02:03:14;;;;;;;1.45;0.60;;;18.10;87.70;;;;;;4994078;28;20049;-71
2022/08/31 02:05:40;;;;;;;5.72;0.90;;;18.10;87.70;;;;;;4993843;28;20100;-71
2022/08/31 02:08:08;;;;;;;3.75;0.90;;;18.10;88.10;;;;;;4993288;28;20073;-71
2022/08/31 02:10:34;;;;;;;1.20;0.60;;;18.00;88.00;;;;;;4993729;28;20572;-70
2022/08/31 02:12:59;;;;;;;4.53;0.73;;;18.00;88.40;;;;;;4993950;28;20113;-71
2022/08/31 02:15:25;;;;;;;5.20;0.70;;;18.00;88.50;;;;;;4993635;28;20361;-70
2022/08/31 02:17:51;;;;;;;1.52;0.55;;;18.00;88.60;;;;;;4993719;28;20447;-70
2022/08/31 02:20:17;;;;;;;2.35;0.55;;;18.00;88.40;;;;;;4993062;28;20033;-70
2022/08/31 02:22:43;;;;;;;2.40;0.50;;;18.00;88.70;;;;;;4993504;28;20467;-71
2022/08/31 02:25:09;;;;;;;2.40;0.65;;;18.00;89.20;;;;;;4993551;28;20027;-71
2022/08/31 02:27:36;;;;;;;2.03;0.52;;;17.90;88.80;;;;;;4993778;28;20027;-71
2022/08/31 02:30:09;;;;;;;1.08;0.77;;;17.90;89.00;;;;;;4993548;28;20038;-72
2022/08/31 02:32:35;;;;;;;0.70;0.70;;;17.90;89.10;;;;;;4993776;28;20419;-70
2022/08/31 02:35:02;;;;;;;0.70;0.60;;;17.90;89.50;;;;;;4994139;28;20109;-71
2022/08/31 02:37:27;;;;;;;1.70;0.60;;;17.90;89.40;;;;;;4993310;28;20096;-71
2022/08/31 02:39:53;;;;;;;2.08;0.43;;;17.80;89.60;;;;;;4993231;28;20034;-71
2022/08/31 02:42:19;;;;;;;1.25;1.00;;;17.80;89.90;;;;;;4993139;28;20057;-70
2022/08/31 02:44:44;;;;;;;1.80;0.52;;;17.80;89.80;;;;;;4993231;28;20502;-71
2022/08/31 02:47:10;;;;;;;1.90;0.88;;;17.80;89.90;;;;;;4992690;28;20026;-69
2022/08/31 02:49:35;;;;;;;0.73;0.70;;;17.80;89.80;;;;;;4993233;28;20037;-70
2022/08/31 02:52:02;;;;;;;0.95;0.52;;;17.80;89.80;;;;;;4992090;28;20461;-71
2022/08/31 02:54:27;;;;;;;2.22;0.68;;;17.80;89.90;;;;;;4993147;28;20034;-71
2022/08/31 02:56:53;;;;;;;1.23;0.70;;;17.80;90.00;;;;;;4993245;28;20361;-71
2022/08/31 02:59:19;;;;;;;3.95;1.00;;;17.80;90.00;;;;;;4993050;28;20465;-70
2022/08/31 03:01:45;;;;;;;3.58;0.75;;;17.80;90.00;;;;;;4993528;28;20030;-71
2022/08/31 03:04:11;;;;;;;1.00;0.60;;;17.80;90.00;;;;;;4992819;28;20034;-71
2022/08/31 03:06:37;;;;;;;1.77;0.55;;;17.80;90.10;;;;;;4992889;28;20484;-71
2022/08/31 03:09:03;;;;;;;2.13;1.17;;;17.80;90.10;;;;;;4992752;28;20031;-71
2022/08/31 03:11:30;;;;;;;2.13;0.70;;;17.80;90.20;;;;;;4991582;28;20535;-71
2022/08/31 03:13:55;;;;;;;1.38;0.60;;;17.70;90.30;;;;;;4993263;28;20050;-71
2022/08/31 03:16:21;;;;;;;1.27;0.60;;;17.70;90.40;;;;;;4992900;28;20093;-71
2022/08/31 03:18:47;;;;;;;1.35;0.88;;;17.70;90.50;;;;;;4992908;28;20054;-71
2022/08/31 03:21:14;;;;;;;0.80;0.60;;;17.70;90.50;;;;;;4992588;28;20038;-71
2022/08/31 03:23:39;;;;;;;2.60;0.63;;;17.70;90.50;;;;;;4992517;28;20457;-71
2022/08/31 03:26:06;;;;;;;0.73;0.50;;;17.60;90.60;;;;;;4993144;28;20037;-72
2022/08/31 03:28:33;;;;;;;0.88;0.70;;;17.60;90.70;;;;;;4991458;28;20030;-71
2022/08/31 03:30:58;;;;;;;0.95;0.60;;;17.60;90.60;;;;;;4992385;28;20034;-72
2022/08/31 03:33:24;;;;;;;4.00;1.13;;;17.60;90.70;;;;;;4992074;28;20428;-71
2022/08/31 03:35:50;;;;;;;1.70;0.80;;;17.60;90.80;;;;;;4991908;28;20063;-71
2022/08/31 03:38:16;;;;;;;3.30;1.50;;;17.50;90.90;;;;;;4992547;28;20117;-71
2022/08/31 03:40:43;;;;;;;1.90;0.60;;;17.50;91.00;;;;;;4992101;28;20110;-71
2022/08/31 03:43:10;;;;;;;1.40;0.68;;;17.50;91.00;;;;;;4992076;28;20255;-72
2022/08/31 03:45:41;;;;;;;3.47;0.90;;;17.40;91.10;;;;;;4990973;28;20113;-72
2022/08/31 03:48:07;;;;;;;3.28;0.82;;;17.40;91.20;;;;;;4991973;28;20034;-71
2022/08/31 03:50:34;;;;;;;1.17;0.70;;;17.40;91.20;;;;;;4992002;28;20050;-71
2022/08/31 03:53:04;;;;;;;2.92;0.93;;;17.40;91.30;;;;;;4992636;28;20018;-72
2022/08/31 03:55:35;;;;;;;1.95;0.75;;;17.40;91.20;;;;;;4992163;28;20061;-72
2022/08/31 03:58:01;;;;;;;1.52;0.60;;;17.30;91.40;;;;;;4991888;28;20034;-71
2022/08/31 04:00:26;;;;;;;2.25;0.90;;;17.30;91.50;;;;;;4991895;28;20046;-71
2022/08/31 04:02:52;;;;;;;1.25;0.85;;;17.30;91.50;;;;;;4991871;28;20034;-71
2022/08/31 04:05:20;;;;;;;2.50;0.90;;;17.30;91.60;;;;;;4991910;28;20476;-71
2022/08/31 04:07:46;;;;;;;7.18;0.93;;;17.30;91.70;;;;;;4992412;28;20038;-71
2022/08/31 04:10:13;;;;;;;1.73;1.13;;;17.20;91.80;;;;;;4991582;28;20062;-71
2022/08/31 04:12:39;;;;;;;3.20;0.88;;;17.20;91.90;;;;;;4991794;28;20061;-72
2022/08/31 04:15:06;;;;;;;1.40;0.70;;;17.30;91.90;;;;;;4991624;28;20046;-71
2022/08/31 04:17:32;;;;;;;1.50;0.60;;;17.30;91.90;;;;;;4991584;28;20026;-71
2022/08/31 04:19:58;;;;;;;0.82;0.70;;;17.30;91.90;;;;;;4992512;28;20034;-72
2022/08/31 04:22:23;;;;;;;2.88;0.80;;;17.20;91.90;;;;;;4991329;28;20523;-71
2022/08/31 04:24:49;;;;;;;1.77;0.82;;;17.20;92.00;;;;;;4991550;28;20026;-71
2022/08/31 04:27:15;;;;;;;4.93;1.10;;;17.20;92.10;;;;;;4991490;28;20030;-71
2022/08/31 04:29:40;;;;;;;1.27;1.00;;;17.20;92.10;;;;;;4991662;28;20401;-71
2022/08/31 04:32:06;;;;;;;2.00;0.85;;;17.20;92.20;;;;;;4991960;28;20357;-71
2022/08/31 04:34:32;;;;;;;1.48;0.80;;;17.20;92.20;;;;;;4991641;28;20125;-71
2022/08/31 04:36:58;;;;;;;15.13;1.83;;;17.20;92.30;;;;;;4991287;28;20472;-71
2022/08/31 04:39:24;;;;;;;4.05;1.75;;;17.20;92.40;;;;;;4991298;28;20137;-70
2022/08/31 04:41:49;;;;;;;2.78;1.25;;;17.20;92.30;;;;;;4991132;28;20197;-71
2022/08/31 04:44:15;;;;;;;1.77;0.80;;;17.20;92.30;;;;;;4990399;28;20026;-72
2022/08/31 04:46:41;;;;;;;4.28;0.93;;;17.20;92.30;;;;;;4991034;28;20030;-69
2022/08/31 04:49:09;;;;;;;3.60;0.80;;;17.20;92.30;;;;;;4991068;28;20472;-72
2022/08/31 04:51:37;;;;;;;3.70;0.90;;;17.20;92.40;;;;;;4991169;28;20129;-71
2022/08/31 04:54:06;;;;;;;4.18;0.93;;;17.30;92.40;;;;;;4991054;28;20081;-71
2022/08/31 04:56:34;;;;;;;2.90;1.30;;;17.20;92.40;;;;;;4990806;28;20062;-71
2022/08/31 04:59:02;;;;;;;6.70;1.47;;;17.20;92.80;;;;;;4991567;28;20018;-71
2022/08/31 05:01:31;;;;;;;3.03;1.60;;;17.20;92.50;;;;;;4991144;28;20354;-71
2022/08/31 05:03:57;;;;;;;1.30;0.90;;;17.20;92.60;;;;;;4991036;28;20027;-71
2022/08/31 05:06:27;;;;;;;2.60;0.98;;;17.20;92.60;;;;;;4970288;28;20051;-71
2022/08/31 05:08:55;;;;;;;5.25;0.70;;;17.20;92.70;;;;;;4952419;28;20038;-72
2022/08/31 05:11:21;;;;;;;3.35;0.88;;;17.20;92.80;;;;;;4952078;28;20351;-71
2022/08/31 05:13:48;;;;;;;37.08;19.67;;;17.20;92.80;;;;;;4967781;28;20110;-72
2022/08/31 05:16:15;;;;;;;7.82;3.75;;;17.20;93.10;;;;;;4952052;28;20329;-72
2022/08/31 05:18:43;;;;;;;2.45;1.00;;;17.20;92.80;;;;;;4952180;28;20039;-71
2022/08/31 05:21:10;;;;;;;2.67;1.17;;;17.20;92.70;;;;;;4952016;28;20043;-70
2022/08/31 05:23:37;;;;;;;2.83;0.90;;;17.20;92.90;;;;;;4966855;28;20205;-72
2022/08/31 05:26:07;;;;;;;2.83;1.10;;;17.20;92.90;;;;;;4967525;28;20432;-70
2022/08/31 05:28:35;;;;;;;4.43;1.08;;;17.20;92.90;;;;;;4952157;28;20039;-71
2022/08/31 05:31:00;;;;;;;1.33;0.70;;;17.20;92.90;;;;;;4952248;28;20031;-72
2022/08/31 05:33:29;;;;;;;1.60;0.80;;;17.20;92.90;;;;;;4967236;28;20121;-75
2022/08/31 05:35:55;;;;;;;1.90;1.10;;;17.30;93.10;;;;;;4967218;28;20042;-75
2022/08/31 05:38:21;;;;;;;3.30;0.93;;;17.20;93.10;;;;;;4952491;28;20015;-73
2022/08/31 05:40:54;;;;;;;7.43;1.00;;;17.30;93.10;;;;;;4953256;28;20077;-75
2022/08/31 05:43:21;;;;;;;1.90;1.05;;;17.30;93.10;;;;;;4967654;28;20031;-75
2022/08/31 05:45:47;;;;;;;5.97;2.33;;;17.30;93.00;;;;;;4952632;28;20503;-75
2022/08/31 05:48:12;;;;;;;5.57;1.23;;;17.30;93.10;;;;;;4952289;28;20505;-75
2022/08/31 05:50:38;;;;;;;6.18;1.00;;;17.30;93.10;;;;;;4952119;28;20039;-75
2022/08/31 05:53:05;;;;;;;2.15;0.90;;;17.30;93.10;;;;;;4967445;28;20042;-75
2022/08/31 05:55:31;;;;;;;2.00;0.63;;;17.30;93.30;;;;;;4952305;28;20031;-79
2022/08/31 05:57:57;;;;;;;7.95;1.20;;;17.30;93.20;;;;;;4968749;28;20031;-75
2022/08/31 06:00:24;;;;;;;4.00;1.65;;;17.30;93.30;;;;;;4955677;28;20046;-75
2022/08/31 06:02:50;;;;;;;7.00;1.80;;;17.40;93.40;;;;;;4955565;28;20039;-75
2022/08/31 06:05:16;;;;;;;3.10;1.20;;;17.40;93.50;;;;;;4956101;28;20027;-75
2022/08/31 06:07:42;;;;;;;6.53;1.27;;;17.40;93.50;;;;;;4955395;28;20031;-76
2022/08/31 06:10:11;;;;;;;4.18;1.52;;;17.40;93.50;;;;;;4955245;28;20039;-76
2022/08/31 06:12:37;;;;;;;2.22;1.00;;;17.50;93.60;;;;;;4955643;28;20035;-75
2022/08/31 06:15:04;;;;;;;4.13;1.08;;;17.40;93.60;;;;;;4956053;28;20031;-77
2022/08/31 06:17:31;;;;;;;4.20;1.48;;;17.50;93.70;;;;;;4955541;28;20028;-75
2022/08/31 06:19:57;;;;;;;3.50;1.23;;;17.40;93.70;;;;;;4955895;28;20454;-74
2022/08/31 06:22:26;;;;;;;2.35;1.13;;;17.40;93.80;;;;;;4955441;28;20059;-76
2022/08/31 06:24:52;;;;;;;5.20;1.65;;;17.50;93.90;;;;;;4970550;28;20042;-76
2022/08/31 06:27:18;;;;;;;4.28;1.00;;;17.50;94.00;;;;;;4955171;28;20035;-76
2022/08/31 06:29:44;;;;;;;9.32;1.48;;;17.60;94.00;;;;;;4955153;28;20051;-76
2022/08/31 06:32:14;;;;;;;7.07;1.20;;;17.70;93.90;;;;;;4955529;28;20402;-77
2022/08/31 06:34:41;;;;;;;6.15;1.35;;;17.70;94.10;;;;;;4955068;28;20046;-77
2022/08/31 06:37:09;;;;;;;5.53;1.35;;;17.80;93.60;;;;;;4970008;28;20035;-75
2022/08/31 06:39:35;;;;;;;10.55;0.90;;;17.90;93.70;;;;;;4954726;28;20528;-76
2022/08/31 06:42:01;;;;;;;1.50;0.80;;;17.80;93.70;;;;;;4954692;28;20134;-76
2022/08/31 06:44:28;;;;;;;9.25;1.27;;;17.80;93.70;;;;;;4954846;28;20082;-75
2022/08/31 06:46:55;;;;;;;3.25;1.50;;;17.80;93.70;;;;;;4955423;28;20027;-76
2022/08/31 06:49:21;;;;;;;3.22;0.98;;;17.90;93.70;;;;;;4954917;28;20031;-76
2022/08/31 06:51:48;;;;;;;6.32;1.38;;;17.90;93.70;;;;;;4954780;28;20027;-76
2022/08/31 06:54:15;;;;;;;3.83;1.05;;;18.00;93.80;;;;;;4954831;28;20212;-77
2022/08/31 06:56:40;;;;;;;7.40;1.00;;;18.00;93.70;;;;;;4954863;28;20038;-77
2022/08/31 06:59:07;;;;;;;4.40;0.98;;;18.00;93.80;;;;;;4956088;28;20027;-77
2022/08/31 07:01:35;;;;;;;2.50;0.98;;;18.00;93.90;;;;;;4955522;28;20490;-78
2022/08/31 07:04:01;;;;;;;;;;;18.10;93.90;;;;;;4954537;28;20167;-77
2022/08/31 07:06:30;;;;;;;6.22;1.83;;;18.10;93.80;;;;;;4954815;28;19911;-76
2022/08/31 07:08:59;;;;;;;3.55;1.50;;;18.10;93.90;;;;;;4968153;28;20035;-78
2022/08/31 07:11:33;;;;;;;3.22;1.20;;;18.20;93.80;;;;;;4969253;28;20383;-76
2022/08/31 07:14:02;;;;;;;3.47;0.95;;;18.30;93.80;;;;;;4954697;28;20030;-76
2022/08/31 07:16:28;;;;;;;4.93;1.10;;;18.40;93.80;;;;;;4954363;28;20035;-77
2022/08/31 07:18:58;;;;;;;4.90;1.08;;;18.40;94.00;;;;;;4969317;28;20046;-77
2022/08/31 07:21:28;;;;;;;4.97;1.00;;;18.30;93.70;;;;;;4954122;28;20123;-77
2022/08/31 07:23:56;;;;;;;3.45;1.02;;;18.30;93.70;;;;;;4954094;28;20063;-77
2022/08/31 07:26:26;;;;;;;2.72;0.85;;;18.40;93.60;;;;;;4954161;28;20019;-76
2022/08/31 07:28:56;;;;;;;3.42;1.13;;;18.50;93.60;;;;;;4954398;28;20025;-77
2022/08/31 07:31:36;;;;;;;2.53;0.95;;;18.50;93.90;;;;;;4969120;28;20430;-77
2022/08/31 07:34:06;;;;;;;3.22;0.90;;;18.50;93.60;;;;;;4968841;28;20043;-76
2022/08/31 07:42:07;;;;;;;2.88;1.15;;;18.50;93.60;;;;;;4953940;28;20126;-76
2022/08/31 07:42:08;;;;;;;3.20;0.73;;;18.60;93.80;;;;;;4954067;28;20050;-77
2022/08/31 07:44:34;;;;;;;3.95;0.80;;;18.60;93.70;;;;;;4969124;28;20365;-77
2022/08/31 07:47:00;;;;;;;5.85;1.25;;;18.60;93.60;;;;;;4969265;28;20035;-77
2022/08/31 07:49:25;;;;;;;10.13;1.48;;;18.60;93.70;;;;;;4953733;28;20028;-77
2022/08/31 07:51:52;;;;;;;4.90;1.40;;;18.60;93.70;;;;;;4953529;28;20462;-78
2022/08/31 07:54:26;;;;;;;4.35;1.00;;;18.70;93.90;;;;;;4953336;28;20544;-77
2022/08/31 07:57:02;;;;;;;4.63;1.20;;;18.70;93.70;;;;;;4968540;28;20090;-76
2022/08/31 07:59:29;;;;;;;4.18;1.15;;;18.70;93.90;;;;;;4953551;28;20029;-76
2022/08/31 08:01:55;;;;;;;4.20;1.07;;;18.90;93.60;;;;;;4953912;28;20458;-77
2022/08/31 08:04:24;;;;;;;3.35;0.90;;;18.90;93.60;;;;;;4968465;28;20272;-76
2022/08/31 08:06:55;;;;;;;4.35;1.55;;;19.10;93.50;;;;;;4953407;28;20027;-76
2022/08/31 08:09:22;;;;;;;3.67;1.02;;;19.20;93.50;;;;;;4953347;28;20031;-76
2022/08/31 08:11:53;;;;;;;2.47;1.13;;;19.40;93.30;;;;;;4953067;28;20555;-75
2022/08/31 08:14:20;;;;;;;2.53;1.00;;;19.50;92.90;;;;;;4968554;28;20031;-77
2022/08/31 08:16:46;;;;;;;7.97;3.70;;;19.80;92.80;;;;;;4953692;28;20023;-76
2022/08/31 08:19:12;;;;;;;10.35;2.83;;;19.90;92.60;;;;;;4968483;28;20023;-77
2022/08/31 08:21:38;;;;;;;7.05;1.38;;;20.10;92.20;;;;;;4952577;28;20337;-77
2022/08/31 08:24:04;;;;;;;2.95;1.23;;;20.20;92.00;;;;;;4953147;28;20043;-77
2022/08/31 08:26:29;;;;;;;8.45;2.65;;;20.50;91.70;;;;;;4953418;28;20031;-77
2022/08/31 08:28:56;;;;;;;5.60;3.17;;;20.70;91.50;;;;;;4954063;28;20197;-76
2022/08/31 08:31:23;;;;;;;9.77;2.80;;;21.20;91.30;;;;;;4968245;28;20032;-76
2022/08/31 08:33:50;;;;;;;2.80;1.00;;;21.70;90.70;;;;;;4953699;28;20035;-77
2022/08/31 08:36:18;;;;;;;3.90;1.50;;;22.00;90.30;;;;;;4953099;28;20525;-76
2022/08/31 08:38:46;;;;;;;5.07;2.15;;;22.40;90.20;;;;;;4953054;28;20050;-78
2022/08/31 08:41:21;;;;;;;6.00;1.25;;;23.10;87.80;;;;;;4953117;28;20027;-77
2022/08/31 08:43:52;;;;;;;2.25;1.10;;;23.70;86.20;;;;;;4952825;28;20121;-77
2022/08/31 08:46:28;;;;;;;3.63;1.38;;;23.90;83.60;;;;;;4967863;28;20171;-78
2022/08/31 08:48:59;;;;;;;3.20;1.30;;;24.50;83.80;;;;;;4968020;28;20032;-77
2022/08/31 08:51:32;;;;;;;5.30;1.48;;;25.00;81.10;;;;;;4968283;28;20043;-77
2022/08/31 08:54:06;;;;;;;6.50;1.02;;;25.50;79.30;;;;;;4952437;28;20381;-78
2022/08/31 08:56:32;;;;;;;6.07;1.10;;;25.90;77.50;;;;;;4968078;28;20038;-78
2022/08/31 08:58:59;;;;;;;3.53;1.10;;;26.40;78.60;;;;;;4967979;28;20311;-78
2022/08/31 09:01:29;;;;;;;3.60;1.00;;;27.20;74.00;;;;;;4967612;28;20051;-79
2022/08/31 09:04:06;;;;;;;2.75;1.05;;;27.70;70.60;;;;;;4967557;28;20051;-77
2022/08/31 09:06:52;;;;;;;4.70;0.95;;;28.20;69.60;;;;;;4952563;28;20100;-77
2022/08/31 09:09:27;;;;;;;5.72;1.10;;;28.80;68.70;;;;;;4952705;28;20039;-79
2022/08/31 09:12:08;;;;;;;16.98;0.77;;;29.90;64.90;;;;;;4953005;28;20123;-76
2022/08/31 09:14:47;;;;;;;2.83;1.00;;;30.20;62.60;;;;;;4967507;28;20031;-75
2022/08/31 09:17:40;;;;;;;4.32;1.25;;;30.80;61.40;;;;;;4967958;28;20468;-75
2022/08/31 09:20:11;;;;;;;4.10;0.90;;;31.70;58.70;;;;;;4952625;28;20035;-76
2022/08/31 09:22:49;;;;;;;3.25;0.80;;;32.50;56.30;;;;;;4952549;28;20042;-76
2022/08/31 09:25:18;;;;;;;5.68;1.15;;;33.20;55.30;;;;;;4952330;28;20187;-76
2022/08/31 09:28:00;;;;;;;5.47;1.00;;;33.40;54.10;;;;;;4952116;28;20469;-75
2022/08/31 09:30:44;;;;;;;2.58;1.10;;;33.30;52.90;;;;;;4967417;28;20098;-76
2022/08/31 09:33:25;;;;;;;1.55;0.70;;;33.70;51.00;;;;;;4969734;28;20118;-76
2022/08/31 09:35:57;;;;;;;1.50;0.77;;;33.70;50.80;;;;;;4957124;28;20023;-75
2022/08/31 09:38:31;;;;;;;2.00;0.88;;;34.20;49.40;;;;;;4971520;28;20090;-77
2022/08/31 09:40:57;;;;;;;1.35;1.10;;;34.40;48.10;;;;;;4956592;28;20030;-76
2022/08/31 09:43:24;;;;;;;1.50;0.85;;;34.40;47.10;;;;;;4956157;28;20130;-78
2022/08/31 09:46:19;;;;;;;2.35;0.93;;;34.90;48.20;;;;;;4955927;28;20042;-77
2022/08/31 09:49:01;;;;;;;2.30;0.85;;;34.80;46.50;;;;;;4955842;28;20523;-78
2022/08/31 09:51:33;;;;;;;2.33;0.93;;;34.60;45.10;;;;;;4955890;28;20038;-77
2022/08/31 09:57:09;;;;;;;5.05;1.10;;;35.80;44.20;;;;;;4955655;28;20402;-77
2022/08/31 09:59:39;;;;;;;4.93;1.60;;;35.90;42.90;;;;;;4955547;28;20074;-78
2022/08/31 10:02:21;;;;;;;4.10;3.60;;;35.50;43.20;;;;;;4971045;28;20189;-76
2022/08/31 10:04:59;;;;;;;1.70;1.08;;;35.40;41.90;;;;;;4955626;28;20113;-77
2022/08/31 10:07:47;;;;;;;3.33;1.00;;;34.80;43.30;;;;;;4955438;28;20035;-78
2022/08/31 10:10:31;;;;;;;2.03;1.02;;;35.20;42.20;;;;;;4955519;28;20046;-76
2022/08/31 10:13:36;;;;;;;4.15;1.27;;;35.10;42.80;;;;;;4955209;28;20046;-78
2022/08/31 10:16:24;;;;;;;4.55;1.10;;;34.70;40.70;;;;;;4955337;28;20130;-76
2022/08/31 10:19:05;;;;;;;1.00;0.80;;;34.60;42.10;;;;;;4955321;28;20042;-79
2022/08/31 10:21:55;;;;;;;3.13;1.17;;;34.90;42.40;;;;;;4955645;28;20101;-76
2022/08/31 10:24:42;;;;;;;3.17;1.10;;;34.60;42.10;;;;;;4955352;28;20032;-76
2022/08/31 10:27:31;;;;;;;4.38;1.02;;;35.10;40.60;;;;;;4955288;28;20102;-77
2022/08/31 10:30:26;;;;;;;2.80;0.90;;;35.30;41.00;;;;;;4970546;28;20082;-76
2022/08/31 10:33:06;;;;;;;1.65;0.75;;;35.80;41.00;;;;;;4955232;28;20031;-77
2022/08/31 10:35:49;;;;;;;4.38;1.10;;;35.40;41.20;;;;;;4954935;28;20019;-77
2022/08/31 10:38:25;;;;;;;2.70;0.95;;;34.70;41.80;;;;;;4955462;28;20612;-75
2022/08/31 10:41:06;;;;;;;3.25;1.42;;;34.50;41.80;;;;;;4954819;28;20371;-76
2022/08/31 10:43:44;;;;;;;5.03;2.00;;;33.60;42.70;;;;;;4954898;28;20049;-75
2022/08/31 10:46:12;;;;;;;3.80;0.93;;;32.90;43.30;;;;;;4954743;28;20118;-75
2022/08/31 10:48:42;;;;;;;;;;;32.30;44.40;;;;;;4955647;28;20027;-75
2022/08/31 10:51:21;;;;;;;5.20;0.98;;;31.90;45.20;;;;;;4955964;28;19938;-74
2022/08/31 10:54:00;;;;;;;2.03;1.00;;;31.10;46.90;;;;;;4955752;28;20039;-77
2022/08/31 10:56:52;;;;;;;4.68;1.13;;;31.20;46.80;;;;;;4955932;28;20034;-77
2022/08/31 10:59:56;;;;;;;8.02;1.50;;;31.10;46.70;;;;;;4957115;28;20038;-75
2022/08/31 11:02:44;;;;;;;4.95;1.27;;;30.60;47.20;;;;;;4971648;28;20488;-76
2022/08/31 11:05:28;;;;;;;2.45;1.10;;;30.00;47.60;;;;;;4973578;28;20023;-76
2022/08/31 11:08:18;;;;;;;2.83;1.10;;;29.40;47.40;;;;;;4975466;28;20035;-76
2022/08/31 11:10:52;;;;;;;1.92;0.95;;;28.90;48.20;;;;;;4956910;29;20504;-77
2022/08/31 11:13:45;;;;;;;4.68;0.90;;;29.00;48.20;;;;;;4957579;28;20031;-77
2022/08/31 11:16:30;;;;;;;2.38;0.80;;;29.10;47.80;;;;;;4957649;28;20115;-77
2022/08/31 11:19:06;;;;;;;6.85;4.05;;;28.90;46.80;;;;;;4955892;28;20051;-77
2022/08/31 11:22:10;;;;;;;4.47;1.90;;;28.70;47.40;;;;;;4954249;28;20031;-76
2022/08/31 11:25:00;;;;;;;5.22;2.08;;;28.50;47.60;;;;;;4968964;28;20496;-77
2022/08/31 11:27:35;;;;;;;2.55;1.00;;;28.30;48.10;;;;;;4954114;28;20390;-76
2022/08/31 11:30:09;;;;;;;2.70;1.35;;;28.10;48.20;;;;;;4954329;28;20046;-76
2022/08/31 11:32:41;;;;;;;3.65;1.00;;;28.10;47.90;;;;;;4954078;28;20045;-78
2022/08/31 11:35:09;;;;;;;2.42;1.00;;;27.70;48.50;;;;;;4954880;28;20027;-78
2022/08/31 11:37:51;;;;;;;6.70;1.75;;;27.70;48.90;;;;;;4969299;28;20028;-78
2022/08/31 11:40:42;;;;;;;14.02;7.03;;;27.50;49.50;;;;;;4953989;28;20224;-77
2022/08/31 11:43:34;;;;;;;2.45;1.33;;;27.50;49.40;;;;;;4953716;28;20126;-77
2022/08/31 11:46:24;;;;;;;5.45;0.80;;;27.60;49.90;;;;;;4953710;28;20043;-79
2022/08/31 11:48:50;;;;;;;4.20;0.88;;;27.60;51.20;;;;;;4968573;28;20031;-78
2022/08/31 11:51:44;;;;;;;6.70;3.13;;;27.70;49.80;;;;;;4968494;28;20047;-81
2022/08/31 11:54:40;;;;;;;2.53;1.50;;;27.40;50.40;;;;;;4953673;28;20453;-78
2022/08/31 11:57:30;;;;;;;6.18;1.10;;;27.10;49.50;;;;;;4969474;28;20364;-79
2022/08/31 11:59:58;;;;;;;4.55;1.40;;;27.30;49.80;;;;;;4968454;28;20027;-80
2022/08/31 12:02:24;;;;;;;3.47;1.40;;;27.30;49.50;;;;;;4968661;28;20031;-81
2022/08/31 12:04:51;;;;;;;3.90;1.10;;;27.30;49.60;;;;;;4954487;28;20405;-79
2022/08/31 12:07:32;;;;;;;3.90;1.27;;;27.20;48.70;;;;;;4954742;28;20024;-80
2022/08/31 12:10:24;;;;;;;3.95;1.20;;;27.30;48.90;;;;;;4954452;28;20028;-78
2022/08/31 12:13:17;;;;;;;2.30;0.95;;;27.10;49.10;;;;;;4953435;28;20039;-80
2022/08/31 12:16:05;;;;;;;3.47;0.80;;;26.90;49.20;;;;;;4967870;28;20042;-79
2022/08/31 12:18:50;;;;;;;2.55;0.95;;;27.10;50.00;;;;;;4953351;28;20035;-80
2022/08/31 12:24:33;;;;;;;2.92;1.27;;;26.80;49.60;;;;;;4953137;28;20484;-79
2022/08/31 12:27:36;;;;;;;2.78;0.95;;;26.90;49.50;;;;;;4953168;28;20118;-77
2022/08/31 12:30:19;;;;;;;3.45;0.80;;;26.80;49.80;;;;;;4967953;28;20034;-79
2022/08/31 12:32:51;;;;;;;3.15;0.98;;;26.70;50.60;;;;;;4967810;28;20082;-80
2022/08/31 12:35:21;;;;;;;4.78;1.33;;;26.50;50.10;;;;;;4953452;28;20505;-77
2022/08/31 12:38:18;;;;;;;4.10;1.00;;;26.40;49.90;;;;;;4953511;28;20087;-78
2022/08/31 12:40:46;;;;;;;2.22;1.00;;;26.10;50.10;;;;;;4956549;28;20070;-78
2022/08/31 12:43:24;;;;;;;0.77;0.70;;;26.20;49.30;;;;;;4953210;28;20046;-79
2022/08/31 12:46:12;;;;;;;3.28;1.20;;;26.30;50.30;;;;;;4952735;28;20042;-78
2022/08/31 12:48:44;;;;;;;3.40;1.73;;;26.30;51.60;;;;;;4952728;28;20031;-77
2022/08/31 12:51:22;;;;;;;2.63;1.00;;;26.30;50.70;;;;;;4953023;28;20045;-78
2022/08/31 12:54:10;;;;;;;7.32;0.95;;;26.10;50.50;;;;;;4952958;28;20035;-78
2022/08/31 12:56:59;;;;;;;2.97;0.68;;;26.10;50.80;;;;;;4954798;28;20028;-80
2022/08/31 12:59:50;;;;;;;1.10;0.80;;;26.10;51.00;;;;;;4963600;28;20066;-79
2022/08/31 13:02:19;;;;;;;6.03;0.98;;;26.10;50.10;;;;;;4955231;28;20454;-79
2022/08/31 13:04:46;;;;;;;2.63;1.00;;;26.00;50.10;;;;;;4954146;29;20126;-78
2022/08/31 13:07:30;;;;;;;4.93;0.90;;;26.00;50.50;;;;;;4957176;28;20101;-77
2022/08/31 13:10:13;;;;;;;1.73;0.70;;;25.90;50.10;;;;;;4957601;28;20102;-78
2022/08/31 13:12:57;;;;;;;1.85;0.60;;;25.90;51.10;;;;;;4958610;28;20484;-80
2022/08/31 13:15:34;;;;;;;12.23;0.82;;;25.90;49.90;;;;;;4957714;28;20068;-78
2022/08/31 13:18:01;;;;;;;1.55;1.05;;;25.80;49.50;;;;;;4957517;28;20378;-78
2022/08/31 13:20:42;;;;;;;1.55;0.93;;;25.70;50.50;;;;;;4957767;28;20030;-78
2022/08/31 13:23:12;;;;;;;2.45;0.95;;;25.70;50.00;;;;;;4972228;28;20027;-78